R.v. Neper — WDF6690 — position and weather

sailwx.info

Track history (hours):
 
Tides and Currents Weather Stations Pressure Air Temp Water Temp Dewpoint Dewpoint Depression Visibility Wind Speed Wind Dir Waves Ship Positions

R.v. Neper

Owner: Roberts, Gordon R, Clinton, WA. More information available from US FCC via Universal Licensing System and Coast Guard Vessel Documentation Center.

Last reported at 2015-Jun-14 20:26 UTC. Time now 2015-Jul-03 06:09 UTC.
Position N 48°00' W 122°13'.
Warning: this ship's position is 18 days out of date.

Length 7 m.

Type: Dredging. MMSI: 367476860.

Date/timePositionNaut miles runAvg speedWind from/ knotsBaromVisibWave heightAir tempDewpointWater temp
2015-Jun-14 20:26N 48°00' W 122°13'0 0.0
2015-Jun-14 15:28N 48°00' W 122°13'0 0.0
2015-Jun-14 14:31N 48°00' W 122°13'0 0.0
2015-Jun-14 05:28N 48°00' W 122°13'0 0.0
2015-Jun-14 03:28N 48°00' W 122°13'0 0.0
2015-Jun-14 02:28N 48°00' W 122°13'2 2.2
2015-Jun-14 01:33N 47°60' W 122°16'5 1.7
2015-Jun-13 22:33N 47°55' W 122°21'7 3.6
2015-Jun-13 20:33N 47°49' W 122°24'2 2.3
2015-Jun-13 19:29N 47°51' W 122°22'0 0.1
2015-Jun-13 18:32N 47°51' W 122°22'0 0.2
2015-Jun-13 17:31N 47°51' W 122°22'6 0.3
2015-Jun-13 01:16N 47°50' W 122°14'  
Track history (hours):
 
Tides and Currents Weather Stations Pressure Air Temp Water Temp Dewpoint Dewpoint Depression Visibility Wind Speed Wind Dir Waves Ship Positions

R.v. Neper

Owner: Roberts, Gordon R, Clinton, WA. More information available from US FCC via Universal Licensing System and Coast Guard Vessel Documentation Center.

Last reported at 2015-Jun-14 20:26 UTC. Time now 2015-Jul-03 06:09 UTC.
Position N 48°00' W 122°13'.
Warning: this ship's position is 18 days out of date.

Length 7 m.

Type: Dredging. MMSI: 367476860.

Date/timePositionNaut miles runAvg speedWind from/ knotsBaromVisibWave heightAir tempDewpointWater temp
2015-Jun-14 20:26N 48°00' W 122°13'0 0.0
2015-Jun-14 15:28N 48°00' W 122°13'0 0.0
2015-Jun-14 14:31N 48°00' W 122°13'0 0.0
2015-Jun-14 05:28N 48°00' W 122°13'0 0.0
2015-Jun-14 03:28N 48°00' W 122°13'0 0.0
2015-Jun-14 02:28N 48°00' W 122°13'2 2.2
2015-Jun-14 01:33N 47°60' W 122°16'5 1.7
2015-Jun-13 22:33N 47°55' W 122°21'7 3.6
2015-Jun-13 20:33N 47°49' W 122°24'2 2.3
2015-Jun-13 19:29N 47°51' W 122°22'0 0.1
2015-Jun-13 18:32N 47°51' W 122°22'0 0.2
2015-Jun-13 17:31N 47°51' W 122°22'6 0.3
2015-Jun-13 01:16N 47°50' W 122°14'  

Dump ship's entire track history